sensor_id;sensor_type;location;lat;lon;timestamp;pressure;altitude;pressure_sealevel;temperature;humidity
48027;BME280;50714;49.208;5.364;2024-03-29T00:02:20;97163.94;;;9.60;65.49
48027;BME280;50714;49.208;5.364;2024-03-29T00:12:20;97166.38;;;9.61;67.06
48027;BME280;50714;49.208;5.364;2024-03-29T00:22:21;97168.84;;;9.63;68.17
48027;BME280;50714;49.208;5.364;2024-03-29T00:32:22;97141.34;;;9.61;69.22
48027;BME280;50714;49.208;5.364;2024-03-29T00:42:23;97154.44;;;9.52;70.06
48027;BME280;50714;49.208;5.364;2024-03-29T00:52:24;97135.91;;;9.55;70.05
48027;BME280;50714;49.208;5.364;2024-03-29T01:02:25;97108.09;;;9.50;70.72
48027;BME280;50714;49.208;5.364;2024-03-29T01:12:25;97094.91;;;9.48;70.38
48027;BME280;50714;49.208;5.364;2024-03-29T01:22:26;97126.44;;;9.53;71.50
48027;BME280;50714;49.208;5.364;2024-03-29T01:32:26;97099.78;;;9.51;71.84
48027;BME280;50714;49.208;5.364;2024-03-29T01:42:26;97082.50;;;9.47;72.30
48027;BME280;50714;49.208;5.364;2024-03-29T01:52:27;97053.19;;;9.51;73.12
48027;BME280;50714;49.208;5.364;2024-03-29T02:02:29;97070.66;;;9.48;73.04
48027;BME280;50714;49.208;5.364;2024-03-29T02:12:29;97058.84;;;9.49;73.55
48027;BME280;50714;49.208;5.364;2024-03-29T02:22:30;97100.22;;;9.70;73.93
48027;BME280;50714;49.208;5.364;2024-03-29T02:32:32;97110.13;;;9.91;76.35
48027;BME280;50714;49.208;5.364;2024-03-29T02:42:32;97113.38;;;9.99;79.31
48027;BME280;50714;49.208;5.364;2024-03-29T02:52:32;97121.22;;;10.32;84.53
48027;BME280;50714;49.208;5.364;2024-03-29T03:02:37;97135.88;;;10.51;86.70
48027;BME280;50714;49.208;5.364;2024-03-29T03:12:37;97151.56;;;10.54;90.92
48027;BME280;50714;49.208;5.364;2024-03-29T03:22:38;97147.16;;;10.38;97.22
48027;BME280;50714;49.208;5.364;2024-03-29T03:32:38;97145.72;;;10.31;100.00
48027;BME280;50714;49.208;5.364;2024-03-29T03:42:38;97142.69;;;10.22;100.00
48027;BME280;50714;49.208;5.364;2024-03-29T03:52:38;97148.81;;;10.17;100.00
48027;BME280;50714;49.208;5.364;2024-03-29T04:02:39;97150.44;;;10.13;100.00
48027;BME280;50714;49.208;5.364;2024-03-29T04:12:39;97180.09;;;10.13;100.00
48027;BME280;50714;49.208;5.364;2024-03-29T04:22:40;97191.63;;;10.09;100.00
48027;BME280;50714;49.208;5.364;2024-03-29T04:32:40;97204.59;;;10.12;100.00
48027;BME280;50714;49.208;5.364;2024-03-29T04:42:40;97209.13;;;10.06;100.00
48027;BME280;50714;49.208;5.364;2024-03-29T04:52:40;97204.28;;;10.08;100.00
48027;BME280;50714;49.208;5.364;2024-03-29T05:02:41;97212.63;;;10.07;100.00
48027;BME280;50714;49.208;5.364;2024-03-29T05:12:41;97220.72;;;10.07;100.00
48027;BME280;50714;49.208;5.364;2024-03-29T05:22:41;97236.38;;;10.10;100.00
48027;BME280;50714;49.208;5.364;2024-03-29T05:32:42;97232.56;;;10.06;100.00
48027;BME280;50714;49.208;5.364;2024-03-29T05:42:42;97246.38;;;10.14;100.00
48027;BME280;50714;49.208;5.364;2024-03-29T05:52:42;97245.53;;;10.09;100.00
48027;BME280;50714;49.208;5.364;2024-03-29T06:02:43;97276.28;;;10.13;100.00
48027;BME280;50714;49.208;5.364;2024-03-29T06:12:48;97281.94;;;10.11;100.00
48027;BME280;50714;49.208;5.364;2024-03-29T06:22:48;97297.88;;;10.18;100.00
48027;BME280;50714;49.208;5.364;2024-03-29T06:32:49;97305.25;;;10.22;100.00
48027;BME280;50714;49.208;5.364;2024-03-29T06:42:49;97302.91;;;10.31;100.00
48027;BME280;50714;49.208;5.364;2024-03-29T06:52:49;97290.00;;;10.33;100.00
48027;BME280;50714;49.208;5.364;2024-03-29T07:02:50;97293.19;;;10.30;100.00
48027;BME280;50714;49.208;5.364;2024-03-29T07:12:50;97290.56;;;10.35;100.00
48027;BME280;50714;49.208;5.364;2024-03-29T07:22:50;97294.63;;;10.38;100.00
48027;BME280;50714;49.208;5.364;2024-03-29T07:32:51;97310.06;;;10.47;100.00
48027;BME280;50714;49.208;5.364;2024-03-29T07:42:51;97306.50;;;10.42;100.00
48027;BME280;50714;49.208;5.364;2024-03-29T07:52:51;97313.88;;;10.51;100.00
48027;BME280;50714;49.208;5.364;2024-03-29T08:02:52;97302.94;;;10.68;100.00
48027;BME280;50714;49.208;5.364;2024-03-29T08:12:53;97345.44;;;10.83;100.00
48027;BME280;50714;49.208;5.364;2024-03-29T08:22:54;97347.09;;;10.89;100.00
48027;BME280;50714;49.208;5.364;2024-03-29T08:32:55;97360.91;;;10.92;100.00
48027;BME280;50714;49.208;5.364;2024-03-29T08:42:57;97322.38;;;11.02;100.00
48027;BME280;50714;49.208;5.364;2024-03-29T08:52:58;97343.00;;;11.18;100.00
48027;BME280;50714;49.208;5.364;2024-03-29T09:02:58;97366.88;;;11.32;100.00
48027;BME280;50714;49.208;5.364;2024-03-29T09:12:59;97381.31;;;11.57;100.00
48027;BME280;50714;49.208;5.364;2024-03-29T09:22:59;97416.09;;;11.81;100.00
48027;BME280;50714;49.208;5.364;2024-03-29T09:32:59;97421.78;;;11.79;100.00
48027;BME280;50714;49.208;5.364;2024-03-29T09:43:01;97443.25;;;11.64;100.00
48027;BME280;50714;49.208;5.364;2024-03-29T09:53:04;97431.69;;;11.37;100.00
48027;BME280;50714;49.208;5.364;2024-03-29T10:03:05;97434.28;;;11.21;100.00
48027;BME280;50714;49.208;5.364;2024-03-29T10:13:07;97428.59;;;11.18;100.00
48027;BME280;50714;49.208;5.364;2024-03-29T10:23:08;97438.22;;;11.41;100.00
48027;BME280;50714;49.208;5.364;2024-03-29T10:33:08;97465.72;;;11.38;100.00
48027;BME280;50714;49.208;5.364;2024-03-29T10:43:09;97455.16;;;11.31;100.00
48027;BME280;50714;49.208;5.364;2024-03-29T10:53:12;97481.44;;;11.41;100.00
48027;BME280;50714;49.208;5.364;2024-03-29T11:03:28;97461.81;;;11.50;100.00
48027;BME280;50714;49.208;5.364;2024-03-29T11:13:53;97469.69;;;11.57;100.00
48027;BME280;50714;49.208;5.364;2024-03-29T11:23:54;97471.22;;;11.80;100.00
48027;BME280;50714;49.208;5.364;2024-03-29T11:33:57;97480.34;;;12.16;100.00
48027;BME280;50714;49.208;5.364;2024-03-29T11:43:58;97496.97;;;12.40;100.00
48027;BME280;50714;49.208;5.364;2024-03-29T11:53:59;97505.78;;;12.20;100.00
48027;BME280;50714;49.208;5.364;2024-03-29T12:04:00;97506.50;;;12.05;100.00
48027;BME280;50714;49.208;5.364;2024-03-29T12:14:00;97503.09;;;12.20;100.00
48027;BME280;50714;49.208;5.364;2024-03-29T12:24:01;97478.00;;;12.35;100.00
48027;BME280;50714;49.208;5.364;2024-03-29T12:34:01;97475.69;;;12.63;100.00
48027;BME280;50714;49.208;5.364;2024-03-29T12:44:02;97475.09;;;12.46;100.00
48027;BME280;50714;49.208;5.364;2024-03-29T12:54:02;97485.50;;;12.17;100.00
48027;BME280;50714;49.208;5.364;2024-03-29T13:04:03;97481.47;;;12.20;100.00
48027;BME280;50714;49.208;5.364;2024-03-29T13:14:04;97513.38;;;12.23;100.00
48027;BME280;50714;49.208;5.364;2024-03-29T13:24:05;97506.66;;;12.30;100.00
48027;BME280;50714;49.208;5.364;2024-03-29T13:34:05;97528.97;;;12.11;100.00
48027;BME280;50714;49.208;5.364;2024-03-29T13:44:12;97534.63;;;12.04;100.00
48027;BME280;50714;49.208;5.364;2024-03-29T13:54:17;97543.63;;;11.78;100.00
48027;BME280;50714;49.208;5.364;2024-03-29T14:04:17;97541.22;;;11.22;100.00
48027;BME280;50714;49.208;5.364;2024-03-29T14:14:18;97546.50;;;10.85;100.00
48027;BME280;50714;49.208;5.364;2024-03-29T14:24:18;97544.63;;;10.86;100.00
48027;BME280;50714;49.208;5.364;2024-03-29T14:34:18;97535.25;;;10.93;100.00
48027;BME280;50714;49.208;5.364;2024-03-29T14:44:20;97552.63;;;11.03;100.00
48027;BME280;50714;49.208;5.364;2024-03-29T14:54:21;97568.09;;;11.12;100.00
48027;BME280;50714;49.208;5.364;2024-03-29T15:04:22;97546.25;;;11.14;100.00
48027;BME280;50714;49.208;5.364;2024-03-29T15:14:22;97521.13;;;11.13;100.00
48027;BME280;50714;49.208;5.364;2024-03-29T15:24:22;97509.53;;;11.13;100.00
48027;BME280;50714;49.208;5.364;2024-03-29T15:34:23;97514.59;;;11.04;100.00
48027;BME280;50714;49.208;5.364;2024-03-29T15:44:23;97518.09;;;11.05;100.00
48027;BME280;50714;49.208;5.364;2024-03-29T15:54:24;97488.91;;;11.02;100.00
48027;BME280;50714;49.208;5.364;2024-03-29T16:04:26;97481.56;;;10.97;100.00
48027;BME280;50714;49.208;5.364;2024-03-29T16:14:26;97480.50;;;10.98;100.00
48027;BME280;50714;49.208;5.364;2024-03-29T16:24:28;97505.88;;;10.97;100.00
48027;BME280;50714;49.208;5.364;2024-03-29T16:34:29;97498.78;;;10.91;100.00
48027;BME280;50714;49.208;5.364;2024-03-29T16:44:29;97482.66;;;10.96;100.00
48027;BME280;50714;49.208;5.364;2024-03-29T16:54:29;97470.97;;;10.90;100.00
48027;BME280;50714;49.208;5.364;2024-03-29T17:04:31;97463.19;;;10.94;100.00
48027;BME280;50714;49.208;5.364;2024-03-29T17:14:31;97461.06;;;10.96;100.00
48027;BME280;50714;49.208;5.364;2024-03-29T17:24:32;97460.00;;;10.97;100.00
48027;BME280;50714;49.208;5.364;2024-03-29T17:34:33;97457.53;;;10.96;100.00
48027;BME280;50714;49.208;5.364;2024-03-29T17:44:33;97478.88;;;10.97;100.00
48027;BME280;50714;49.208;5.364;2024-03-29T17:54:33;97497.66;;;10.87;100.00
48027;BME280;50714;49.208;5.364;2024-03-29T18:04:34;97518.47;;;10.86;100.00
48027;BME280;50714;49.208;5.364;2024-03-29T18:14:34;97513.56;;;10.83;100.00
48027;BME280;50714;49.208;5.364;2024-03-29T18:24:35;97494.09;;;10.81;100.00
48027;BME280;50714;49.208;5.364;2024-03-29T18:34:35;97516.38;;;10.72;100.00
48027;BME280;50714;49.208;5.364;2024-03-29T18:44:35;97475.09;;;10.71;100.00
48027;BME280;50714;49.208;5.364;2024-03-29T18:54:36;97481.56;;;10.70;100.00
48027;BME280;50714;49.208;5.364;2024-03-29T19:04:36;97468.63;;;10.72;100.00
48027;BME280;50714;49.208;5.364;2024-03-29T19:14:39;97475.97;;;10.77;100.00
48027;BME280;50714;49.208;5.364;2024-03-29T19:24:40;97446.56;;;10.75;100.00
48027;BME280;50714;49.208;5.364;2024-03-29T19:34:40;97449.25;;;10.75;100.00
48027;BME280;50714;49.208;5.364;2024-03-29T19:44:40;97526.44;;;10.76;100.00
48027;BME280;50714;49.208;5.364;2024-03-29T19:54:41;97541.47;;;10.72;100.00
48027;BME280;50714;49.208;5.364;2024-03-29T20:04:41;97508.59;;;10.75;100.00
48027;BME280;50714;49.208;5.364;2024-03-29T20:14:41;97483.00;;;10.78;100.00
48027;BME280;50714;49.208;5.364;2024-03-29T20:24:42;97582.69;;;10.68;100.00
48027;BME280;50714;49.208;5.364;2024-03-29T20:34:44;97547.59;;;10.63;100.00
48027;BME280;50714;49.208;5.364;2024-03-29T20:44:45;97523.81;;;10.59;100.00
48027;BME280;50714;49.208;5.364;2024-03-29T20:54:46;97515.97;;;10.58;100.00
48027;BME280;50714;49.208;5.364;2024-03-29T21:04:46;97499.16;;;10.51;100.00
48027;BME280;50714;49.208;5.364;2024-03-29T21:15:05;97509.44;;;10.54;100.00
48027;BME280;50714;49.208;5.364;2024-03-29T21:25:08;97521.84;;;10.55;100.00
48027;BME280;50714;49.208;5.364;2024-03-29T21:35:09;97499.22;;;10.56;100.00
48027;BME280;50714;49.208;5.364;2024-03-29T21:45:09;97524.38;;;10.62;100.00
48027;BME280;50714;49.208;5.364;2024-03-29T21:55:09;97515.22;;;10.63;100.00
48027;BME280;50714;49.208;5.364;2024-03-29T22:05:10;97495.53;;;10.62;100.00
48027;BME280;50714;49.208;5.364;2024-03-29T22:15:10;97474.44;;;10.59;100.00
48027;BME280;50714;49.208;5.364;2024-03-29T22:25:10;97445.47;;;10.49;100.00
48027;BME280;50714;49.208;5.364;2024-03-29T22:35:10;97446.44;;;10.38;100.00
48027;BME280;50714;49.208;5.364;2024-03-29T22:45:11;97459.84;;;10.33;100.00
48027;BME280;50714;49.208;5.364;2024-03-29T22:55:11;97473.44;;;10.21;100.00
48027;BME280;50714;49.208;5.364;2024-03-29T23:05:11;97461.28;;;10.19;100.00
48027;BME280;50714;49.208;5.364;2024-03-29T23:15:12;97430.59;;;10.03;100.00
48027;BME280;50714;49.208;5.364;2024-03-29T23:25:13;97435.09;;;9.98;100.00
48027;BME280;50714;49.208;5.364;2024-03-29T23:35:13;97428.22;;;10.07;100.00
48027;BME280;50714;49.208;5.364;2024-03-29T23:45:14;97407.22;;;10.09;100.00
48027;BME280;50714;49.208;5.364;2024-03-29T23:55:14;97407.28;;;10.14;100.00
